Carlyle, Canada
Current Conditions -  °F | °C
As of 6:00 PM on Saturday 25 Oct 2014 (Local Time) from CYEN Reporting Station
Broken Clouds Broken Clouds  
Wind Chill: 42°   Ceiling: 23000
Heat Index: 46°   Visibility: 15mi
Dew Point: 30°   Wind: 9mph
Humidity: 53%   Direction: 90°E
Pressure: 29.95"   Gusts: NA
Location:  49.63°N, 102.27°W
Report Text: CYEN 260000Z 09008KT 15SM FEW120 SCT160 BKN230 08/M01 A2995 RMKAC1AS3CI0 SLP164
Loading
Personal Weather Stations






























Interactive Weather Map
Tropical Storm Tracking
New forecast layout! Learn more

10-Day Weather Forecast

Advertisements
Track Severe Weather on mobile